createdAt,value
2016-12-30T00:00:44.134Z,1034.14
2016-12-30T00:01:44.148Z,1034.2
2016-12-30T00:02:44.163Z,1034.2
2016-12-30T00:04:44.191Z,1034.19
2016-12-30T00:05:44.206Z,1034.19
2016-12-30T00:06:44.220Z,1034.19
2016-12-30T00:07:44.234Z,1034.17
2016-12-30T00:08:44.248Z,1034.15
2016-12-30T00:09:44.263Z,1034.18
2016-12-30T00:10:44.278Z,1034.15
2016-12-30T00:11:44.291Z,1034.1
2016-12-30T00:12:44.306Z,1034.1
2016-12-30T00:13:44.320Z,1034.08
2016-12-30T00:14:44.334Z,1034.07
2016-12-30T00:15:44.349Z,1034.12
2016-12-30T00:16:44.363Z,1034.13
2016-12-30T00:17:44.378Z,1034.12
2016-12-30T00:18:44.391Z,1034.17
2016-12-30T00:20:44.420Z,1034.15
2016-12-30T00:21:44.435Z,1034.22
2016-12-30T00:22:44.449Z,1034.17
2016-12-30T00:23:44.463Z,1034.16
2016-12-30T00:24:44.478Z,1034.2
2016-12-30T00:25:44.491Z,1034.18
2016-12-30T00:26:44.505Z,1034.18
2016-12-30T00:27:44.520Z,1034.17
2016-12-30T00:28:44.535Z,1034.2
2016-12-30T00:29:44.548Z,1034.24
2016-12-30T00:30:44.564Z,1034.21
2016-12-30T00:31:44.578Z,1034.22
2016-12-30T00:32:44.592Z,1034.21
2016-12-30T00:33:44.606Z,1034.25
2016-12-30T00:35:44.635Z,1034.18
2016-12-30T00:36:44.649Z,1034.15
2016-12-30T00:37:44.663Z,1034.15
2016-12-30T00:38:44.678Z,1034.1
2016-12-30T00:39:44.692Z,1034.1
2016-12-30T00:40:44.705Z,1034.1
2016-12-30T00:41:44.720Z,1034.1
2016-12-30T00:42:44.734Z,1034.11
2016-12-30T00:43:44.748Z,1034.05
2016-12-30T00:44:44.762Z,1034.11
2016-12-30T00:45:44.777Z,1034.06
2016-12-30T00:46:44.791Z,1034.07
2016-12-30T00:47:44.804Z,1034.06
2016-12-30T00:48:44.819Z,1034.03
2016-12-30T00:49:44.833Z,1034.04
2016-12-30T00:50:44.848Z,1034.06
2016-12-30T00:51:44.861Z,1034.08
2016-12-30T00:52:44.875Z,1034.07
2016-12-30T00:53:44.890Z,1034.03
2016-12-30T00:54:44.903Z,1034.04
2016-12-30T00:55:44.918Z,1034.02
2016-12-30T00:56:44.932Z,1034.06
2016-12-30T00:57:44.946Z,1034.09
2016-12-30T00:58:44.960Z,1034.07
2016-12-30T00:59:44.974Z,1034.1
2016-12-30T01:00:44.989Z,1034.11
2016-12-30T01:01:45.003Z,1034.13
2016-12-30T01:02:45.016Z,1034.09
2016-12-30T01:03:45.031Z,1034.09
2016-12-30T01:04:45.045Z,1034.1
2016-12-30T01:05:45.059Z,1034.07
2016-12-30T01:07:45.087Z,1034.07
2016-12-30T01:08:45.101Z,1034.04
2016-12-30T01:09:45.115Z,1034
2016-12-30T01:10:45.131Z,1034.03
2016-12-30T01:11:45.144Z,1034.04
2016-12-30T01:12:45.158Z,1034.03
2016-12-30T01:13:45.171Z,1034
2016-12-30T01:14:45.186Z,1034.04
2016-12-30T01:15:45.200Z,1034
2016-12-30T01:16:45.213Z,1033.98
2016-12-30T01:17:45.228Z,1033.96
2016-12-30T01:18:45.242Z,1033.98
2016-12-30T01:19:45.256Z,1033.96
2016-12-30T01:20:45.270Z,1033.96
2016-12-30T01:21:45.284Z,1033.94
2016-12-30T01:23:45.313Z,1033.93
2016-12-30T01:24:45.326Z,1033.93
2016-12-30T01:25:45.340Z,1033.94
2016-12-30T01:26:45.355Z,1033.91
2016-12-30T01:27:45.368Z,1033.93
2016-12-30T01:28:45.382Z,1033.9
2016-12-30T01:29:45.396Z,1033.88
2016-12-30T01:30:45.411Z,1033.87
2016-12-30T01:31:45.426Z,1033.89
2016-12-30T01:32:45.438Z,1033.84
2016-12-30T01:33:45.453Z,1033.84
2016-12-30T01:34:45.467Z,1033.85
2016-12-30T01:35:45.480Z,1033.82
2016-12-30T01:36:45.495Z,1033.78
2016-12-30T01:37:45.509Z,1033.81
2016-12-30T01:39:45.537Z,1033.77
2016-12-30T01:40:45.551Z,1033.79
2016-12-30T01:41:45.564Z,1033.82
2016-12-30T01:42:45.577Z,1033.85
2016-12-30T01:43:45.592Z,1033.77
2016-12-30T01:44:45.606Z,1033.8
2016-12-30T01:45:45.621Z,1033.83
2016-12-30T01:46:45.633Z,1033.8
2016-12-30T01:47:45.649Z,1033.79
2016-12-30T01:48:45.662Z,1033.79
2016-12-30T01:49:45.675Z,1033.81
2016-12-30T01:50:45.689Z,1033.8
2016-12-30T01:51:45.704Z,1033.81
2016-12-30T01:52:45.718Z,1033.74
2016-12-30T01:53:45.731Z,1033.75
2016-12-30T01:55:45.760Z,1033.69
2016-12-30T01:56:45.774Z,1033.63
2016-12-30T01:57:45.787Z,1033.62
2016-12-30T01:58:45.801Z,1033.62
2016-12-30T01:59:45.815Z,1033.57
2016-12-30T02:00:45.828Z,1033.58
2016-12-30T02:01:45.842Z,1033.62
2016-12-30T02:02:45.856Z,1033.58
2016-12-30T02:03:45.871Z,1033.59
2016-12-30T02:04:45.884Z,1033.6
2016-12-30T02:05:45.898Z,1033.65
2016-12-30T02:06:45.912Z,1033.63
2016-12-30T02:07:45.926Z,1033.66
2016-12-30T02:08:45.941Z,1033.61
2016-12-30T02:10:45.969Z,1033.6
2016-12-30T02:11:45.982Z,1033.6
2016-12-30T02:12:45.996Z,1033.56
2016-12-30T02:13:46.010Z,1033.53
2016-12-30T02:14:46.024Z,1033.49
2016-12-30T02:15:46.037Z,1033.5
2016-12-30T02:16:46.052Z,1033.47
2016-12-30T02:17:46.066Z,1033.44
2016-12-30T02:18:46.079Z,1033.41
2016-12-30T02:19:46.093Z,1033.44
2016-12-30T02:20:46.107Z,1033.41
2016-12-30T02:21:46.121Z,1033.39
2016-12-30T02:22:46.134Z,1033.39
2016-12-30T02:23:46.148Z,1033.38
2016-12-30T02:24:46.162Z,1033.38
2016-12-30T02:25:46.176Z,1033.36
2016-12-30T02:26:46.189Z,1033.34
2016-12-30T02:27:46.203Z,1033.36
2016-12-30T02:28:46.217Z,1033.32
2016-12-30T02:29:46.230Z,1033.33
2016-12-30T02:30:46.247Z,1033.31
2016-12-30T02:31:46.258Z,1033.3
2016-12-30T02:32:46.273Z,1033.32
2016-12-30T02:33:46.285Z,1033.34
2016-12-30T02:34:46.299Z,1033.31
2016-12-30T02:35:46.313Z,1033.3
2016-12-30T02:36:46.327Z,1033.31
2016-12-30T02:37:46.340Z,1033.3
2016-12-30T02:38:46.354Z,1033.27
2016-12-30T02:39:46.368Z,1033.27
2016-12-30T02:40:46.381Z,1033.19
2016-12-30T02:42:46.409Z,1033.2
2016-12-30T02:43:46.423Z,1033.19
2016-12-30T02:44:46.436Z,1033.17
2016-12-30T02:45:46.450Z,1033.2
2016-12-30T02:46:46.464Z,1033.21
2016-12-30T02:47:46.478Z,1033.23
2016-12-30T02:48:46.491Z,1033.23
2016-12-30T02:49:46.505Z,1033.22
2016-12-30T02:50:46.519Z,1033.19
2016-12-30T02:51:46.532Z,1033.23
2016-12-30T02:52:46.546Z,1033.19
2016-12-30T02:53:46.560Z,1033.2
2016-12-30T02:54:46.574Z,1033.14
2016-12-30T02:55:46.587Z,1033.14
2016-12-30T02:56:46.601Z,1033.11
2016-12-30T02:58:46.629Z,1033.08
2016-12-30T02:59:46.642Z,1033.07
2016-12-30T03:00:46.655Z,1033.06
2016-12-30T03:01:46.670Z,1033.04
2016-12-30T03:02:46.683Z,1033.06
2016-12-30T03:03:46.697Z,1033
2016-12-30T03:04:46.711Z,1033.04
2016-12-30T03:05:46.725Z,1033.01
2016-12-30T03:06:46.737Z,1033.03
2016-12-30T03:07:46.751Z,1033.03
2016-12-30T03:08:46.765Z,1033.04
2016-12-30T03:09:46.779Z,1033.02
2016-12-30T03:10:46.792Z,1033.03
2016-12-30T03:11:46.806Z,1033.03
2016-12-30T03:12:46.820Z,1033.06
2016-12-30T03:14:46.847Z,1033.09
2016-12-30T03:15:46.861Z,1033.12
2016-12-30T03:16:46.875Z,1033.1
2016-12-30T03:17:46.888Z,1033.11
2016-12-30T03:18:46.902Z,1033.11
2016-12-30T03:19:46.916Z,1033.11
2016-12-30T03:20:46.930Z,1033.07
2016-12-30T03:21:46.943Z,1033.1
2016-12-30T03:22:46.957Z,1033.08
2016-12-30T03:23:46.971Z,1033.1
2016-12-30T03:24:46.984Z,1033.09
2016-12-30T03:25:46.998Z,1033.04
2016-12-30T03:26:47.012Z,1033.09
2016-12-30T03:27:47.026Z,1033.07
2016-12-30T03:28:47.039Z,1033.08
2016-12-30T03:30:47.067Z,1033.06
2016-12-30T03:31:47.081Z,1033.07
2016-12-30T03:32:47.094Z,1033.04
2016-12-30T03:33:47.109Z,1033
2016-12-30T03:34:47.122Z,1032.98
2016-12-30T03:35:47.135Z,1032.94
2016-12-30T03:36:47.148Z,1032.97
2016-12-30T03:37:47.163Z,1032.93
2016-12-30T03:38:47.176Z,1032.94
2016-12-30T03:39:47.189Z,1032.94
2016-12-30T03:40:47.204Z,1032.94
2016-12-30T03:41:47.217Z,1032.95
2016-12-30T03:42:47.231Z,1032.95
2016-12-30T03:43:47.245Z,1033.01
2016-12-30T03:45:47.273Z,1033
2016-12-30T03:46:47.286Z,1032.98
2016-12-30T03:47:47.300Z,1032.96
2016-12-30T03:48:47.316Z,1033
2016-12-30T03:49:47.328Z,1032.96
2016-12-30T03:50:47.340Z,1032.96
2016-12-30T03:51:47.355Z,1032.94
2016-12-30T03:52:47.368Z,1032.95
2016-12-30T03:53:47.382Z,1032.98
2016-12-30T03:54:47.395Z,1032.95
2016-12-30T03:55:47.409Z,1032.94
2016-12-30T03:56:47.426Z,1032.92
2016-12-30T03:57:47.439Z,1032.91
2016-12-30T03:58:47.450Z,1032.9
2016-12-30T03:59:47.464Z,1032.87
2016-12-30T04:00:47.478Z,1032.9
2016-12-30T04:01:47.491Z,1032.86
2016-12-30T04:02:47.505Z,1032.86
2016-12-30T04:03:47.518Z,1032.83
2016-12-30T04:04:47.533Z,1032.83
2016-12-30T04:05:47.545Z,1032.81
2016-12-30T04:06:47.559Z,1032.83
2016-12-30T04:07:47.572Z,1032.78
2016-12-30T04:08:47.586Z,1032.78
2016-12-30T04:09:47.601Z,1032.82
2016-12-30T04:10:47.616Z,1032.81
2016-12-30T04:11:47.627Z,1032.81
2016-12-30T04:12:47.640Z,1032.79
2016-12-30T04:13:47.655Z,1032.81
2016-12-30T04:14:47.668Z,1032.82
2016-12-30T04:15:47.680Z,1032.86
2016-12-30T04:17:47.708Z,1032.81
2016-12-30T04:18:47.722Z,1032.79
2016-12-30T04:19:47.734Z,1032.82
2016-12-30T04:20:47.748Z,1032.81
2016-12-30T04:21:47.762Z,1032.77
2016-12-30T04:22:47.776Z,1032.78
2016-12-30T04:23:47.788Z,1032.78
2016-12-30T04:24:47.804Z,1032.76
2016-12-30T04:25:47.816Z,1032.79
2016-12-30T04:26:47.828Z,1032.77
2016-12-30T04:27:47.842Z,1032.79
2016-12-30T04:28:47.858Z,1032.76
2016-12-30T04:29:47.870Z,1032.78
2016-12-30T04:30:47.882Z,1032.77
2016-12-30T04:31:47.896Z,1032.75
2016-12-30T04:33:47.924Z,1032.73
2016-12-30T04:34:47.936Z,1032.68
2016-12-30T04:35:47.950Z,1032.71
2016-12-30T04:36:47.964Z,1032.72
2016-12-30T04:37:47.976Z,1032.73
2016-12-30T04:38:47.990Z,1032.71
2016-12-30T04:39:48.003Z,1032.7
2016-12-30T04:40:48.017Z,1032.73
2016-12-30T04:41:48.030Z,1032.77
2016-12-30T04:42:48.044Z,1032.73
2016-12-30T04:43:48.061Z,1032.73
2016-12-30T04:44:48.071Z,1032.73
2016-12-30T04:45:48.084Z,1032.73
2016-12-30T04:46:48.097Z,1032.7
2016-12-30T04:47:48.111Z,1032.73
2016-12-30T04:49:48.138Z,1032.65
2016-12-30T04:50:48.152Z,1032.62
2016-12-30T04:51:48.165Z,1032.64
2016-12-30T04:52:48.178Z,1032.66
2016-12-30T04:53:48.193Z,1032.65
2016-12-30T04:54:48.205Z,1032.62
2016-12-30T04:55:48.218Z,1032.65
2016-12-30T04:56:48.231Z,1032.62
2016-12-30T04:57:48.245Z,1032.71
2016-12-30T04:58:48.258Z,1032.65
2016-12-30T04:59:48.421Z,1032.61
2016-12-30T05:00:48.284Z,1032.62
2016-12-30T05:01:48.298Z,1032.62
2016-12-30T05:02:48.312Z,1032.6
2016-12-30T05:03:48.324Z,1032.62
2016-12-30T05:05:48.352Z,1032.61
2016-12-30T05:06:48.365Z,1032.62
2016-12-30T05:07:48.378Z,1032.61
2016-12-30T05:08:48.392Z,1032.65
2016-12-30T05:09:48.405Z,1032.66
2016-12-30T05:10:48.417Z,1032.65
2016-12-30T05:11:48.431Z,1032.62
2016-12-30T05:12:48.445Z,1032.63
2016-12-30T05:13:48.458Z,1032.62
2016-12-30T05:14:48.471Z,1032.58
2016-12-30T05:15:48.484Z,1032.61
2016-12-30T05:16:48.498Z,1032.62
2016-12-30T05:17:48.511Z,1032.61
2016-12-30T05:18:48.525Z,1032.58
2016-12-30T05:20:48.552Z,1032.61
2016-12-30T05:21:48.565Z,1032.59
2016-12-30T05:22:48.578Z,1032.55
2016-12-30T05:23:48.592Z,1032.59
2016-12-30T05:24:48.605Z,1032.61
2016-12-30T05:25:48.617Z,1032.59
2016-12-30T05:26:48.631Z,1032.58
2016-12-30T05:27:48.645Z,1032.57
2016-12-30T05:28:48.658Z,1032.56
2016-12-30T05:29:48.672Z,1032.56
2016-12-30T05:30:48.684Z,1032.56
2016-12-30T05:31:48.700Z,1032.52
2016-12-30T05:32:48.710Z,1032.49
2016-12-30T05:33:48.724Z,1032.5
2016-12-30T05:34:48.737Z,1032.47
2016-12-30T05:35:48.751Z,1032.47
2016-12-30T05:36:48.763Z,1032.48
2016-12-30T05:37:48.776Z,1032.47
2016-12-30T05:38:48.790Z,1032.46
2016-12-30T05:39:48.803Z,1032.5
2016-12-30T05:40:48.816Z,1032.5
2016-12-30T05:41:48.830Z,1032.5
2016-12-30T05:42:48.843Z,1032.5
2016-12-30T05:43:48.856Z,1032.48
2016-12-30T05:44:48.869Z,1032.49
2016-12-30T05:45:48.883Z,1032.48
2016-12-30T05:46:48.897Z,1032.44
2016-12-30T05:47:48.912Z,1032.43
2016-12-30T05:48:48.923Z,1032.43
2016-12-30T05:49:48.936Z,1032.4
2016-12-30T05:50:48.948Z,1032.36
2016-12-30T05:52:48.975Z,1032.34
2016-12-30T05:53:48.989Z,1032.29
2016-12-30T05:54:49.001Z,1032.3
2016-12-30T05:55:49.015Z,1032.32
2016-12-30T05:56:49.028Z,1032.31
2016-12-30T05:57:49.042Z,1032.35
2016-12-30T05:58:49.054Z,1032.35
2016-12-30T05:59:49.068Z,1032.37
2016-12-30T06:00:49.081Z,1032.39
2016-12-30T06:01:49.094Z,1032.34
2016-12-30T06:02:49.107Z,1032.31
2016-12-30T06:03:49.121Z,1032.32
2016-12-30T06:04:49.134Z,1032.34
2016-12-30T06:05:49.147Z,1032.29
2016-12-30T06:06:49.160Z,1032.28
2016-12-30T06:08:49.187Z,1032.34
2016-12-30T06:09:49.199Z,1032.35
2016-12-30T06:10:49.213Z,1032.4
2016-12-30T06:11:49.226Z,1032.37
2016-12-30T06:12:49.239Z,1032.37
2016-12-30T06:13:49.252Z,1032.37
2016-12-30T06:14:49.265Z,1032.35
2016-12-30T06:15:49.279Z,1032.31
2016-12-30T06:16:49.291Z,1032.35
2016-12-30T06:17:49.305Z,1032.35
2016-12-30T06:18:49.318Z,1032.28
2016-12-30T06:19:49.331Z,1032.3
2016-12-30T06:20:49.344Z,1032.32
2016-12-30T06:21:49.358Z,1032.31
2016-12-30T06:22:49.378Z,1032.34
2016-12-30T06:24:49.396Z,1032.35
2016-12-30T06:25:49.410Z,1032.35
2016-12-30T06:26:49.423Z,1032.32
2016-12-30T06:27:49.435Z,1032.33
2016-12-30T06:28:49.462Z,1032.35
2016-12-30T06:29:49.463Z,1032.34
2016-12-30T06:30:49.476Z,1032.38
2016-12-30T06:31:49.488Z,1032.36
2016-12-30T06:32:49.501Z,1032.36
2016-12-30T06:33:49.515Z,1032.37
2016-12-30T06:34:49.528Z,1032.34
2016-12-30T06:35:49.541Z,1032.29
2016-12-30T06:36:49.554Z,1032.31
2016-12-30T06:37:49.568Z,1032.27
2016-12-30T06:38:49.580Z,1032.24
2016-12-30T06:40:49.607Z,1032.23
2016-12-30T06:41:49.620Z,1032.26
2016-12-30T06:42:49.633Z,1032.24
2016-12-30T06:43:49.646Z,1032.24
2016-12-30T06:44:49.660Z,1032.23
2016-12-30T06:45:49.672Z,1032.27
2016-12-30T06:46:49.686Z,1032.27
2016-12-30T06:47:49.699Z,1032.27
2016-12-30T06:48:49.713Z,1032.23
2016-12-30T06:49:49.726Z,1032.24
2016-12-30T06:50:49.738Z,1032.23
2016-12-30T06:51:49.752Z,1032.22
2016-12-30T06:52:49.765Z,1032.18
2016-12-30T06:53:49.779Z,1032.18
2016-12-30T06:55:49.806Z,1032.16
2016-12-30T06:56:49.818Z,1032.24
2016-12-30T06:57:49.831Z,1032.2
2016-12-30T06:58:49.845Z,1032.19
2016-12-30T06:59:49.858Z,1032.17
2016-12-30T07:00:49.871Z,1032.24
2016-12-30T07:01:49.885Z,1032.21
2016-12-30T07:02:49.898Z,1032.24
2016-12-30T07:03:49.910Z,1032.25
2016-12-30T07:04:49.923Z,1032.21
2016-12-30T07:05:49.937Z,1032.23
2016-12-30T07:06:49.950Z,1032.21
2016-12-30T07:07:49.962Z,1032.17
2016-12-30T07:08:49.976Z,1032.17
2016-12-30T07:09:49.989Z,1032.1
2016-12-30T07:10:50.002Z,1032.09
2016-12-30T07:11:50.015Z,1032.05
2016-12-30T07:12:50.029Z,1032.04
2016-12-30T07:13:50.042Z,1032.03
2016-12-30T07:14:50.054Z,1032.04
2016-12-30T07:15:50.068Z,1032.04
2016-12-30T07:16:50.081Z,1032.06
2016-12-30T07:17:50.094Z,1032.08
2016-12-30T07:18:50.108Z,1032.07
2016-12-30T07:19:50.120Z,1032.05
2016-12-30T07:20:50.133Z,1032.03
2016-12-30T07:21:50.147Z,1032.05
2016-12-30T07:22:50.159Z,1032.03
2016-12-30T07:23:50.173Z,1032.02
2016-12-30T07:24:50.186Z,1032.06
2016-12-30T07:25:50.198Z,1032
2016-12-30T07:27:50.225Z,1032.01
2016-12-30T07:28:50.239Z,1032.02
2016-12-30T07:29:50.251Z,1032.03
2016-12-30T07:30:50.264Z,1032.04
2016-12-30T07:31:50.278Z,1032.01
2016-12-30T07:32:50.291Z,1032.02
2016-12-30T07:33:50.303Z,1031.99
2016-12-30T07:34:50.317Z,1032
2016-12-30T07:35:50.330Z,1032.06
2016-12-30T07:36:50.342Z,1032.09
2016-12-30T07:37:50.356Z,1032.08
2016-12-30T07:38:50.369Z,1032.09
2016-12-30T07:39:50.383Z,1032.08
2016-12-30T07:40:50.395Z,1032.1
2016-12-30T07:41:50.409Z,1032.11
2016-12-30T07:43:50.435Z,1032.15
2016-12-30T07:44:50.448Z,1032.15
2016-12-30T07:45:50.461Z,1032.18
2016-12-30T07:46:50.474Z,1032.14
2016-12-30T07:47:50.487Z,1032.15
2016-12-30T07:48:50.500Z,1032.16
2016-12-30T07:49:50.514Z,1032.21
2016-12-30T07:50:50.531Z,1032.22
2016-12-30T07:51:50.540Z,1032.22
2016-12-30T07:52:50.553Z,1032.24
2016-12-30T07:53:50.567Z,1032.3
2016-12-30T07:54:50.580Z,1032.31
2016-12-30T07:55:50.593Z,1032.31
2016-12-30T07:56:50.606Z,1032.35
2016-12-30T07:57:50.619Z,1032.34
2016-12-30T07:59:50.646Z,1032.34
2016-12-30T08:00:50.659Z,1032.37
2016-12-30T08:01:50.673Z,1032.31
2016-12-30T08:02:50.686Z,1032.33
2016-12-30T08:03:50.699Z,1032.3
2016-12-30T08:04:50.713Z,1032.28
2016-12-30T08:05:50.726Z,1032.27
2016-12-30T08:06:50.739Z,1032.3
2016-12-30T08:07:50.752Z,1032.31
2016-12-30T08:08:50.766Z,1032.3
2016-12-30T08:09:50.779Z,1032.28
2016-12-30T08:10:50.792Z,1032.33
2016-12-30T08:11:50.806Z,1032.36
2016-12-30T08:12:50.820Z,1032.34
2016-12-30T08:13:50.833Z,1032.38
2016-12-30T08:15:50.860Z,1032.38
2016-12-30T08:16:50.874Z,1032.34
2016-12-30T08:17:50.887Z,1032.33
2016-12-30T08:18:50.901Z,1032.32
2016-12-30T08:19:50.914Z,1032.35
2016-12-30T08:20:50.927Z,1032.32
2016-12-30T08:21:50.941Z,1032.37
2016-12-30T08:22:50.955Z,1032.35
2016-12-30T08:23:50.969Z,1032.41
2016-12-30T08:24:50.981Z,1032.4
2016-12-30T08:25:50.995Z,1032.37
2016-12-30T08:26:51.009Z,1032.36
2016-12-30T08:27:51.023Z,1032.36
2016-12-30T08:28:51.037Z,1032.35
2016-12-30T08:30:51.065Z,1032.31
2016-12-30T08:31:51.078Z,1032.31
2016-12-30T08:32:51.092Z,1032.32
2016-12-30T08:33:51.106Z,1032.36
2016-12-30T08:34:51.120Z,1032.35
2016-12-30T08:35:51.133Z,1032.32
2016-12-30T08:36:51.147Z,1032.34
2016-12-30T08:37:51.161Z,1032.34
2016-12-30T08:38:51.174Z,1032.34
2016-12-30T08:39:51.191Z,1032.34
2016-12-30T08:40:51.202Z,1032.36
2016-12-30T08:41:51.217Z,1032.33
2016-12-30T08:42:51.229Z,1032.35
2016-12-30T08:43:51.244Z,1032.35
2016-12-30T08:44:51.258Z,1032.36
2016-12-30T08:45:51.272Z,1032.33
2016-12-30T08:46:51.285Z,1032.35
2016-12-30T08:47:51.299Z,1032.31
2016-12-30T08:48:51.313Z,1032.32
2016-12-30T08:49:51.327Z,1032.3
2016-12-30T08:50:51.341Z,1032.23
2016-12-30T08:51:51.355Z,1032.24
2016-12-30T08:52:51.369Z,1032.26
2016-12-30T08:53:51.382Z,1032.28
2016-12-30T08:54:51.397Z,1032.31
2016-12-30T08:55:51.412Z,1032.32
2016-12-30T08:56:51.425Z,1032.36
2016-12-30T08:57:51.441Z,1032.35
2016-12-30T08:58:51.453Z,1032.34
2016-12-30T08:59:51.468Z,1032.3
2016-12-30T09:00:51.481Z,1032.28
2016-12-30T09:02:51.510Z,1032.35
2016-12-30T09:03:51.524Z,1032.36
2016-12-30T09:04:51.538Z,1032.33
2016-12-30T09:05:51.552Z,1032.35
2016-12-30T09:06:51.567Z,1032.33
2016-12-30T09:07:51.581Z,1032.31
2016-12-30T09:08:51.595Z,1032.31
2016-12-30T09:09:51.609Z,1032.25
2016-12-30T09:10:51.624Z,1032.28
2016-12-30T09:11:51.638Z,1032.28
2016-12-30T09:12:51.652Z,1032.27
2016-12-30T09:13:51.667Z,1032.28
2016-12-30T09:14:51.682Z,1032.33
2016-12-30T09:15:51.695Z,1032.34
2016-12-30T09:16:51.710Z,1032.38
2016-12-30T09:18:51.740Z,1032.28
2016-12-30T09:19:51.753Z,1032.27
2016-12-30T09:20:51.768Z,1032.22
2016-12-30T09:21:51.783Z,1032.21
2016-12-30T09:22:51.797Z,1032.2
2016-12-30T09:23:51.812Z,1032.13
2016-12-30T09:24:51.827Z,1032.09
2016-12-30T09:25:51.841Z,1032.05
2016-12-30T09:26:51.855Z,1032.01
2016-12-30T09:27:51.870Z,1032
2016-12-30T09:28:51.885Z,1031.98
2016-12-30T09:29:52.200Z,1032.04
2016-12-30T09:30:51.914Z,1032.02
2016-12-30T09:31:51.929Z,1031.99
2016-12-30T09:32:51.943Z,1032.05
2016-12-30T09:34:51.973Z,1031.97
2016-12-30T09:35:51.988Z,1031.98
2016-12-30T09:36:52.003Z,1031.95
2016-12-30T09:37:52.017Z,1031.96
2016-12-30T09:38:52.032Z,1031.94
2016-12-30T09:39:52.047Z,1031.99
2016-12-30T09:40:52.062Z,1031.97
2016-12-30T09:41:52.076Z,1031.96
2016-12-30T09:42:52.091Z,1031.96
2016-12-30T09:43:52.106Z,1031.9
2016-12-30T09:44:52.120Z,1031.86
2016-12-30T09:45:52.136Z,1031.83
2016-12-30T09:46:52.152Z,1031.79
2016-12-30T09:47:52.166Z,1031.8
2016-12-30T09:48:52.180Z,1031.81
2016-12-30T09:50:52.210Z,1031.75
2016-12-30T09:51:52.226Z,1031.76
2016-12-30T09:52:52.240Z,1031.73
2016-12-30T09:53:52.255Z,1031.71
2016-12-30T09:54:52.270Z,1031.71
2016-12-30T09:55:52.285Z,1031.7
2016-12-30T09:56:52.300Z,1031.68
2016-12-30T09:57:52.315Z,1031.65
2016-12-30T09:58:52.330Z,1031.72
2016-12-30T09:59:52.345Z,1031.69
2016-12-30T10:00:52.360Z,1031.73
2016-12-30T10:01:52.375Z,1031.73
2016-12-30T10:02:52.391Z,1031.75
2016-12-30T10:03:52.406Z,1031.76
2016-12-30T10:05:52.437Z,1031.71
2016-12-30T10:06:52.451Z,1031.69
2016-12-30T10:07:52.467Z,1031.65
2016-12-30T10:08:52.482Z,1031.61
2016-12-30T10:09:52.498Z,1031.57
2016-12-30T10:10:52.512Z,1031.55
2016-12-30T10:11:52.527Z,1031.52
2016-12-30T10:12:52.542Z,1031.52
2016-12-30T10:13:52.557Z,1031.57
2016-12-30T10:14:52.573Z,1031.58
2016-12-30T10:15:52.588Z,1031.58
2016-12-30T10:16:52.604Z,1031.6
2016-12-30T10:17:52.618Z,1031.59
2016-12-30T10:18:52.634Z,1031.6
2016-12-30T10:19:52.649Z,1031.57
2016-12-30T10:20:52.665Z,1031.53
2016-12-30T10:21:52.679Z,1031.55
2016-12-30T10:22:52.695Z,1031.58
2016-12-30T10:23:52.710Z,1031.55
2016-12-30T10:24:52.725Z,1031.56
2016-12-30T10:25:52.740Z,1031.55
2016-12-30T10:26:52.756Z,1031.6
2016-12-30T10:27:52.772Z,1031.53
2016-12-30T10:28:52.787Z,1031.55
2016-12-30T10:29:52.802Z,1031.58
2016-12-30T10:30:52.818Z,1031.55
2016-12-30T10:31:52.833Z,1031.53
2016-12-30T10:32:52.848Z,1031.57
2016-12-30T10:33:52.865Z,1031.52
2016-12-30T10:34:52.880Z,1031.51
2016-12-30T10:35:52.894Z,1031.47
2016-12-30T10:37:52.925Z,1031.4
2016-12-30T10:38:52.941Z,1031.4
2016-12-30T10:39:52.956Z,1031.43
2016-12-30T10:40:52.971Z,1031.42
2016-12-30T10:41:52.987Z,1031.42
2016-12-30T10:42:53.003Z,1031.4
2016-12-30T10:43:53.018Z,1031.39
2016-12-30T10:44:53.033Z,1031.4
2016-12-30T10:45:53.049Z,1031.34
2016-12-30T10:46:53.065Z,1031.28
2016-12-30T10:47:53.079Z,1031.27
2016-12-30T10:48:53.095Z,1031.3
2016-12-30T10:49:53.111Z,1031.25
2016-12-30T10:50:53.126Z,1031.26
2016-12-30T10:51:53.142Z,1031.29
2016-12-30T10:53:53.173Z,1031.32
2016-12-30T10:54:53.188Z,1031.28
2016-12-30T10:55:53.217Z,1031.25
2016-12-30T10:56:53.219Z,1031.28
2016-12-30T10:57:53.234Z,1031.28
2016-12-30T10:58:53.250Z,1031.3
2016-12-30T10:59:53.266Z,1031.25
2016-12-30T11:00:53.281Z,1031.24
2016-12-30T11:01:53.296Z,1031.25
2016-12-30T11:02:53.312Z,1031.29
2016-12-30T11:03:53.328Z,1031.27
2016-12-30T11:04:53.343Z,1031.26
2016-12-30T11:05:53.358Z,1031.25
2016-12-30T11:06:53.374Z,1031.19
2016-12-30T11:07:53.390Z,1031.24
2016-12-30T11:09:53.420Z,1031.17
2016-12-30T11:10:53.436Z,1031.15
2016-12-30T11:11:53.452Z,1031.17
2016-12-30T11:12:53.467Z,1031.16
2016-12-30T11:13:53.483Z,1031.18
2016-12-30T11:14:53.498Z,1031.2
2016-12-30T11:15:53.514Z,1031.19
2016-12-30T11:16:53.529Z,1031.18
2016-12-30T11:17:53.545Z,1031.18
2016-12-30T11:18:53.561Z,1031.12
2016-12-30T11:19:53.575Z,1031.15
2016-12-30T11:20:53.591Z,1031.15
2016-12-30T11:21:53.609Z,1031.12
2016-12-30T11:22:53.623Z,1031.16
2016-12-30T11:23:53.638Z,1031.15
2016-12-30T11:25:53.670Z,1031.19
2016-12-30T11:26:53.685Z,1031.17
2016-12-30T11:27:53.700Z,1031.17
2016-12-30T11:28:53.716Z,1031.18
2016-12-30T11:29:53.732Z,1031.2
2016-12-30T11:30:53.747Z,1031.19
2016-12-30T11:31:53.763Z,1031.22
2016-12-30T11:32:53.779Z,1031.22
2016-12-30T11:33:53.796Z,1031.19
2016-12-30T11:34:53.810Z,1031.22
2016-12-30T11:35:53.826Z,1031.24
2016-12-30T11:36:53.842Z,1031.27
2016-12-30T11:37:53.858Z,1031.19
2016-12-30T11:38:53.874Z,1031.24
2016-12-30T11:40:53.911Z,1031.16
2016-12-30T11:41:53.921Z,1031.12
2016-12-30T11:42:53.937Z,1031.14
2016-12-30T11:43:53.953Z,1031.18
2016-12-30T11:44:53.969Z,1031.16
2016-12-30T11:45:53.983Z,1031.21
2016-12-30T11:46:54.000Z,1031.19
2016-12-30T11:47:54.016Z,1031.18
2016-12-30T11:48:54.031Z,1031.24
2016-12-30T11:49:54.047Z,1031.19
2016-12-30T11:50:54.063Z,1031.12
2016-12-30T11:51:54.079Z,1031.11
2016-12-30T11:52:54.094Z,1031.04
2016-12-30T11:53:54.110Z,1031.05
2016-12-30T11:54:54.126Z,1031.03
2016-12-30T11:55:54.142Z,1031.05
2016-12-30T11:56:54.157Z,1031.02
2016-12-30T11:57:54.173Z,1031.02
2016-12-30T11:58:54.189Z,1031.05
2016-12-30T11:59:54.204Z,1031.06
2016-12-30T12:00:54.220Z,1031.04
2016-12-30T12:01:54.237Z,1031.04
2016-12-30T12:02:54.252Z,1031.01
2016-12-30T12:03:54.268Z,1031.02
2016-12-30T12:04:54.284Z,1031.01
2016-12-30T12:05:54.300Z,1031
2016-12-30T12:06:54.317Z,1030.95
2016-12-30T12:07:54.332Z,1030.96
2016-12-30T12:08:54.348Z,1030.91
2016-12-30T12:09:54.364Z,1030.89
2016-12-30T12:10:54.380Z,1030.92
2016-12-30T12:12:54.412Z,1030.88
2016-12-30T12:13:54.429Z,1030.85
2016-12-30T12:14:54.444Z,1030.86
2016-12-30T12:15:54.460Z,1030.83
2016-12-30T12:16:54.476Z,1030.8
2016-12-30T12:17:54.492Z,1030.77
2016-12-30T12:18:54.508Z,1030.83
2016-12-30T12:19:54.524Z,1030.77
2016-12-30T12:20:54.542Z,1030.79
2016-12-30T12:21:54.556Z,1030.81
2016-12-30T12:22:54.572Z,1030.81
2016-12-30T12:23:54.589Z,1030.8
2016-12-30T12:24:54.605Z,1030.77
2016-12-30T12:25:54.621Z,1030.77
2016-12-30T12:26:54.637Z,1030.74
2016-12-30T12:28:54.670Z,1030.7
2016-12-30T12:29:54.685Z,1030.69
2016-12-30T12:30:54.702Z,1030.65
2016-12-30T12:31:54.718Z,1030.64
2016-12-30T12:32:54.733Z,1030.66
2016-12-30T12:33:54.750Z,1030.67
2016-12-30T12:34:54.766Z,1030.66
2016-12-30T12:35:54.783Z,1030.68
2016-12-30T12:36:54.799Z,1030.63
2016-12-30T12:37:54.815Z,1030.62
2016-12-30T12:38:54.831Z,1030.64
2016-12-30T12:39:54.850Z,1030.62
2016-12-30T12:40:54.863Z,1030.62
2016-12-30T12:41:54.879Z,1030.66
2016-12-30T12:42:54.896Z,1030.61
2016-12-30T12:44:54.928Z,1030.57
2016-12-30T12:45:54.944Z,1030.57
2016-12-30T12:46:54.961Z,1030.52
2016-12-30T12:47:54.977Z,1030.53
2016-12-30T12:48:54.993Z,1030.49
2016-12-30T12:49:55.009Z,1030.46